首页
METAR-TAF:

METAR-TAF

机场 :

麥爾茲堡, 佛罗里达州, 美国

纬度: 26-35-03N, 经度: 081-51-45W, 海拔: 5米

当前天气观测

该预报发布于1小时和0分钟前的20:53 UTC
风速11节,风向西转西南
温度 31°C
湿度 49%
气压 1016 hPa
能見度: 16.1公里
天空无云

METAR: KFMY 282053Z 25011KT 10SM CLR 31/19 A3000 RMK AO2 SLP160 T03060194 56017

时间: 17:53 (21:53 UTC)

预报

该预报发布于4小时和20分钟前的17:33 UTC
预报有效从28日的 18点(UTC)到 29日的 18点(UTC)
风速7节,风向南转南东
能見度: 10公里
天空无云
从 28日的 2000点(UTC)
风速9节,风向西南
能見度: 10公里
天空无云
从 29日的 0100点(UTC)
风速3节,风向多变
能見度: 10公里
天空无云
从 29日的 0900点(UTC)
风速3节,风向多变
能見度: 9.7公里
少量云层高于1000英尺
轻雾
从 29日的 1400点(UTC)
风速8节,风向南转南东
能見度: 10公里
少量云层高于4000英尺
散云层高于25000英尺

TAF: KFMY 281733Z 2818/2918 15007KT P6SM SKC FM282000 22009KT P6SM SKC FM290100 VRB03KT P6SM SKC FM290900 VRB03KT 6SM BR FEW010 FM291400 15008KT P6SM FEW040 SCT250

超过4000个机场的气象观测和天气预报(METAR&TAF报告)。

可查询的气象台以黄色和红色小点在地图上表示。

将鼠标移到小点上方,可查看气象台名称。

然后点击查看天气观测和预报。

如需切换地图:点击带黑十字的绿色按钮放大地图;点击带横线的绿色按钮缩小地图;或者点击绿色箭头查看邻近地区的地图。


METAR-TAF: